Time;durP1;ratioP1;P1;durP2;ratioP2;P2;SDS_P1;SDS_P2;PMS_P1;PMS_P2;Temp;Humidity;BMP_temperature;BMP_pressure;BME280_temperature;BME280_humidity;BME280_pressure;Samples;Min_cycle;Max_cycle;Signal;HPM_P1;HPM_P2
2022/12/28 00:00:06;;;;;;;;;;;;;;;3.83;81.18;101682.88;4167966;28;19999;-60
2022/12/28 00:02:14;;;;;;;;;;;;;;;3.84;81.10;101676.56;4169954;28;20016;-58
2022/12/28 00:04:16;;;;;;;;;;;;;;;3.84;81.09;101681.91;4167936;28;20015;-61
2022/12/28 00:06:19;;;;;;;;;;;;;;;3.84;80.94;101674.75;4169613;28;20020;-60
2022/12/28 00:08:20;;;;;;;;;;;;;;;3.87;80.88;101671.00;4170376;28;20004;-61
2022/12/28 00:10:23;;;;;;;;;;;;;;;3.88;80.60;101673.56;4170690;28;20003;-60
2022/12/28 00:12:26;;;;;;;;;;;;;;;3.87;80.56;101666.53;4170331;28;20032;-61
2022/12/28 00:14:28;;;;;;;;;;;;;;;3.87;80.60;101671.88;4169742;28;20478;-61
2022/12/28 00:16:31;;;;;;;;;;;;;;;3.88;80.45;101676.22;4168608;28;20436;-60
2022/12/28 00:18:33;;;;;;;;;;;;;;;3.89;80.41;101658.38;4170174;28;20642;-58
2022/12/28 00:20:35;;;;;;;;;;;;;;;3.91;80.68;101667.16;4168871;28;20434;-60
2022/12/28 00:22:37;;;;;;;;;;;;;;;3.92;80.17;101652.81;4168800;28;20008;-58
2022/12/28 00:24:39;;;;;;;;;;;;;;;3.92;80.24;101659.00;4168923;28;20852;-60
2022/12/28 00:26:41;;;;;;;;;;;;;;;3.91;80.01;101657.28;4169007;28;20000;-61
2022/12/28 00:28:45;;;;;;;;;;;;;;;3.90;80.00;101646.72;4169058;28;20020;-60
2022/12/28 00:30:49;;;;;;;;;;;;;;;3.90;80.02;101649.38;4170508;28;20028;-60
2022/12/28 00:32:51;;;;;;;;;;;;;;;3.90;80.33;101639.56;4169866;28;20369;-61
2022/12/28 00:34:54;;;;;;;;;;;;;;;3.89;80.28;101632.50;4184955;28;20019;-60
2022/12/28 00:36:56;;;;;;;;;;;;;;;3.90;80.29;101638.69;4170675;28;20043;-60
2022/12/28 00:38:58;;;;;;;;;;;;;;;3.91;80.27;101638.59;4170658;28;19932;-62
2022/12/28 00:41:00;;;;;;;;;;;;;;;3.92;80.18;101637.63;4168856;28;20339;-62
2022/12/28 00:43:02;;;;;;;;;;;;;;;3.95;80.10;101649.94;4170053;28;20470;-59
2022/12/28 00:45:08;;;;;;;;;;;;;;;3.94;80.13;101650.88;4169953;28;20008;-61
2022/12/28 00:47:10;;;;;;;;;;;;;;;3.99;79.92;101663.91;4170964;28;20422;-58
2022/12/28 00:49:14;;;;;;;;;;;;;;;3.99;79.92;101661.25;4170293;28;20015;-58
2022/12/28 00:51:16;;;;;;;;;;;;;;;4.01;79.56;101643.25;4186026;28;20023;-59
2022/12/28 00:53:18;;;;;;;;;;;;;;;4.01;80.02;101640.59;4173921;28;20051;-60
2022/12/28 00:55:20;;;;;;;;;;;;;;;4.01;80.01;101629.91;4172365;28;20012;-60
2022/12/28 00:57:22;;;;;;;;;;;;;;;4.02;79.78;101631.63;4173729;28;20458;-60
2022/12/28 00:59:25;;;;;;;;;;;;;;;4.03;79.65;101638.66;4172826;28;19933;-60
2022/12/28 01:01:29;;;;;;;;;;;;;;;4.03;79.49;101634.19;4172074;28;20422;-61
2022/12/28 01:03:32;;;;;;;;;;;;;;;4.02;79.71;101628.94;4172240;28;20044;-60
2022/12/28 01:05:34;;;;;;;;;;;;;;;4.02;79.59;101628.94;4170435;28;20450;-60
2022/12/28 01:07:36;;;;;;;;;;;;;;;4.03;79.58;101631.50;4173471;28;20011;-61
2022/12/28 01:09:38;;;;;;;;;;;;;;;4.03;79.52;101622.63;4172030;28;20384;-59
2022/12/28 01:11:40;;;;;;;;;;;;;;;4.02;79.65;101626.28;4189838;28;20023;-60
2022/12/28 01:13:42;;;;;;;;;;;;;;;4.03;79.73;101625.28;4173298;28;20017;-61
2022/12/28 01:15:44;;;;;;;;;;;;;;;4.05;79.56;101626.03;4184374;28;20417;-58
2022/12/28 01:17:47;;;;;;;;;;;;;;;4.06;79.59;101622.38;4172805;28;20043;-57
2022/12/28 01:19:49;;;;;;;;;;;;;;;4.05;79.30;101623.38;4172378;28;19928;-61
2022/12/28 01:21:51;;;;;;;;;;;;;;;4.06;79.33;101603.66;4173130;28;20375;-61
2022/12/28 01:23:56;;;;;;;;;;;;;;;4.05;79.72;101602.00;4172713;28;20008;-61
2022/12/28 01:26:01;;;;;;;;;;;;;;;4.06;79.52;101609.03;4171813;28;20459;-59
2022/12/28 01:28:02;;;;;;;;;;;;;;;4.07;79.52;101608.91;4170502;28;20012;-60
2022/12/28 01:30:05;;;;;;;;;;;;;;;4.06;79.09;101601.88;4171786;28;20029;-61
2022/12/28 01:32:07;;;;;;;;;;;;;;;4.05;79.17;101593.97;4171332;28;20011;-60
2022/12/28 01:34:10;;;;;;;;;;;;;;;4.04;79.20;101595.75;4171913;28;20012;-61
2022/12/28 01:36:13;;;;;;;;;;;;;;;4.02;79.34;101584.34;4186757;28;20015;-61
2022/12/28 01:38:15;;;;;;;;;;;;;;;4.00;79.28;101586.28;4172751;28;20367;-59
2022/12/28 01:40:18;;;;;;;;;;;;;;;4.00;79.21;101586.28;4172153;28;19921;-60
2022/12/28 01:42:20;;;;;;;;;;;;;;;4.01;79.47;101579.13;4171343;28;20079;-61
2022/12/28 01:44:37;;;;;;;;;;;;;;;4.00;79.23;101582.75;4170586;28;20003;-59
2022/12/28 01:46:40;;;;;;;;;;;;;;;4.01;79.37;101576.44;4172769;28;20015;-61
2022/12/28 01:48:44;;;;;;;;;;;;;;;4.01;79.40;101571.94;4179117;28;20012;-62
2022/12/28 01:50:48;;;;;;;;;;;;;;;4.01;79.41;101563.06;4172075;28;20000;-61
2022/12/28 01:52:51;;;;;;;;;;;;;;;4.02;79.21;101572.81;4173425;28;19951;-61
2022/12/28 01:54:54;;;;;;;;;;;;;;;4.01;79.17;101566.59;4171225;28;19921;-61
2022/12/28 01:56:56;;;;;;;;;;;;;;;3.99;79.29;101567.69;4171896;28;20267;-60
2022/12/28 01:58:58;;;;;;;;;;;;;;;3.99;79.28;101551.66;4172040;28;20003;-61
2022/12/28 02:01:00;;;;;;;;;;;;;;;3.98;79.35;101550.78;4171602;28;19921;-61
2022/12/28 02:03:05;;;;;;;;;;;;;;;3.98;79.18;101542.75;4172890;28;20023;-61
2022/12/28 02:05:07;;;;;;;;;;;;;;;3.94;79.08;101538.63;4170229;28;20027;-61
2022/12/28 02:07:11;;;;;;;;;;;;;;;3.93;79.14;101537.78;4187512;28;20012;-61
2022/12/28 02:09:14;;;;;;;;;;;;;;;3.93;79.10;101532.44;4187413;28;20007;-61
2022/12/28 02:11:17;;;;;;;;;;;;;;;3.91;79.06;101526.34;4172183;28;20483;-61
2022/12/28 02:13:19;;;;;;;;;;;;;;;3.92;79.42;101519.19;4179291;28;19935;-61
2022/12/28 02:15:22;;;;;;;;;;;;;;;3.90;79.32;101515.75;4177611;28;20023;-61
2022/12/28 02:17:27;;;;;;;;;;;;;;;3.89;79.35;101512.25;4172817;28;19928;-61
2022/12/28 02:19:32;;;;;;;;;;;;;;;3.88;79.37;101507.84;4169947;28;19925;-60
2022/12/28 02:21:36;;;;;;;;;;;;;;;3.88;79.18;101507.84;4186582;28;19957;-61
2022/12/28 02:23:45;;;;;;;;;;;;;;;3.88;79.10;101507.00;4172183;28;20024;-60
2022/12/28 02:26:05;;;;;;;;;;;;;;;3.85;79.27;101494.72;4171295;28;20019;-58
2022/12/28 02:28:08;;;;;;;;;;;;;;;3.85;79.20;101488.53;4171519;28;20027;-58
2022/12/28 02:30:13;;;;;;;;;;;;;;;3.84;79.14;101486.81;4170998;28;20015;-57
2022/12/28 02:32:17;;;;;;;;;;;;;;;3.83;79.19;101485.97;4171672;28;20007;-59
2022/12/28 02:34:21;;;;;;;;;;;;;;;3.84;79.36;101481.47;4170656;28;20011;-57
2022/12/28 02:36:24;;;;;;;;;;;;;;;3.85;79.15;101476.00;4170087;28;20019;-60
2022/12/28 02:38:28;;;;;;;;;;;;;;;3.86;79.08;101472.38;4172448;28;20366;-59
2022/12/28 02:40:32;;;;;;;;;;;;;;;3.85;79.11;101470.66;4185655;28;20024;-60
2022/12/28 02:42:35;;;;;;;;;;;;;;;3.85;78.86;101461.81;4186775;28;20405;-57
2022/12/28 02:51:49;;;;;;;;;;;;;;;3.81;78.99;101449.63;4172342;28;20450;-60
2022/12/28 02:54:04;;;;;;;;;;;;;;;3.82;78.97;101435.31;4171367;28;20367;-61
2022/12/28 02:56:10;;;;;;;;;;;;;;;3.80;78.85;101443.44;4184812;28;20011;-59
2022/12/28 02:58:17;;;;;;;;;;;;;;;3.79;78.80;101428.38;4171894;28;20445;-60
2022/12/28 03:00:20;;;;;;;;;;;;;;;3.78;79.08;101432.88;4169385;28;20012;-60
2022/12/28 03:02:36;;;;;;;;;;;;;;;3.79;78.92;101425.72;4177400;28;20016;-58
2022/12/28 03:04:42;;;;;;;;;;;;;;;3.78;79.20;101411.50;4170459;28;19921;-60
2022/12/28 03:09:08;;;;;;;;;;;;;;;3.79;79.04;101413.22;4186865;28;20462;-58
2022/12/28 03:11:11;;;;;;;;;;;;;;;3.78;78.66;101400.81;4185794;28;20027;-59
2022/12/28 03:15:34;;;;;;;;;;;;;;;3.77;78.79;101382.22;4184546;28;20027;-59
2022/12/28 03:31:48;;;;;;;;;;;;;;;3.74;78.67;101377.13;4178616;28;20363;-54
2022/12/28 03:33:52;;;;;;;;;;;;;;;3.71;78.61;101369.34;4170449;28;20018;-57
2022/12/28 03:35:55;;;;;;;;;;;;;;;3.69;78.54;101364.09;4186382;28;20015;-55
2022/12/28 03:37:59;;;;;;;;;;;;;;;3.66;78.71;101367.00;4185761;28;20438;-59
2022/12/28 03:40:03;;;;;;;;;;;;;;;3.65;78.70;101357.28;4169622;28;20000;-57
2022/12/28 03:44:31;;;;;;;;;;;;;;;3.66;78.78;101345.63;4168609;28;20020;-58
2022/12/28 03:46:34;;;;;;;;;;;;;;;3.67;78.59;101342.00;4186382;28;20454;-56
2022/12/28 03:48:36;;;;;;;;;;;;;;;3.68;78.59;101337.50;4170175;28;20019;-59
2022/12/28 03:50:40;;;;;;;;;;;;;;;3.67;78.49;101343.81;4185082;28;20028;-56
2022/12/28 03:52:44;;;;;;;;;;;;;;;3.64;78.65;101328.88;4177776;28;20007;-57
2022/12/28 03:54:46;;;;;;;;;;;;;;;3.63;78.61;101316.50;4185295;28;19947;-58
2022/12/28 03:56:51;;;;;;;;;;;;;;;3.61;78.59;101310.41;4168954;28;20007;-59
2022/12/28 03:58:57;;;;;;;;;;;;;;;3.61;78.59;101319.28;4169808;28;20007;-59
2022/12/28 04:01:08;;;;;;;;;;;;;;;3.60;78.54;101314.06;4168019;28;20019;-58
2022/12/28 04:03:10;;;;;;;;;;;;;;;3.58;78.79;101308.81;4170014;28;20035;-60
2022/12/28 04:05:12;;;;;;;;;;;;;;;3.57;78.48;101301.81;4184403;28;20391;-57
2022/12/28 04:07:17;;;;;;;;;;;;;;;3.56;78.56;101300.09;4185527;28;19932;-60
2022/12/28 04:09:19;;;;;;;;;;;;;;;3.58;78.73;101303.47;4168864;28;20430;-57
2022/12/28 04:11:22;;;;;;;;;;;;;;;3.60;78.60;101295.34;4169296;28;20023;-58
2022/12/28 04:13:28;;;;;;;;;;;;;;;3.59;78.52;101289.16;4170441;28;20396;-57
2022/12/28 04:15:35;;;;;;;;;;;;;;;3.61;78.31;101289.88;4168626;28;20381;-60
2022/12/28 04:17:37;;;;;;;;;;;;;;;3.63;78.73;101280.91;4170792;28;20008;-58
2022/12/28 04:19:39;;;;;;;;;;;;;;;3.64;78.57;101283.47;4168315;28;20004;-57
2022/12/28 04:21:42;;;;;;;;;;;;;;;3.63;78.39;101271.06;4168878;28;20036;-58
2022/12/28 04:23:46;;;;;;;;;;;;;;;3.61;78.29;101267.69;4185903;28;20036;-59
2022/12/28 04:25:57;;;;;;;;;;;;;;;3.58;78.25;101260.75;4187282;28;20458;-57
2022/12/28 04:27:59;;;;;;;;;;;;;;;3.57;78.04;101267.06;4172800;28;20031;-54
2022/12/28 04:30:33;;;;;;;;;;;;;;;3.55;78.32;101266.31;4172763;28;20003;-59
2022/12/28 04:32:35;;;;;;;;;;;;;;;3.55;78.21;101252.97;4173510;28;20359;-57
2022/12/28 04:34:39;;;;;;;;;;;;;;;3.54;78.20;101253.97;4188638;28;20023;-59
2022/12/28 04:36:46;;;;;;;;;;;;;;;3.54;78.41;101253.97;4180630;28;20575;-57
2022/12/28 04:38:51;;;;;;;;;;;;;;;3.55;78.38;101244.97;4180305;28;20015;-59
2022/12/28 04:40:53;;;;;;;;;;;;;;;3.55;78.15;101252.13;4173145;28;20447;-58
2022/12/28 04:42:55;;;;;;;;;;;;;;;3.54;78.12;101245.94;4173361;28;20015;-58
2022/12/28 04:44:57;;;;;;;;;;;;;;;3.54;78.19;101232.59;4172952;28;20015;-60
2022/12/28 04:46:59;;;;;;;;;;;;;;;3.52;78.38;101228.34;4173894;28;20015;-60
2022/12/28 04:49:01;;;;;;;;;;;;;;;3.52;77.99;101221.16;4173599;28;20510;-58
2022/12/28 04:51:05;;;;;;;;;;;;;;;3.52;78.14;101229.16;4172687;28;20007;-58
2022/12/28 04:53:08;;;;;;;;;;;;;;;3.54;78.39;101242.41;4173396;28;20019;-60
2022/12/28 04:55:11;;;;;;;;;;;;;;;3.57;78.37;101237.69;4172426;28;20019;-60
2022/12/28 04:57:13;;;;;;;;;;;;;;;3.58;78.01;101233.19;4174362;28;20455;-60
2022/12/28 04:59:15;;;;;;;;;;;;;;;3.61;78.10;101236.47;4172855;28;20047;-60
2022/12/28 05:01:18;;;;;;;;;;;;;;;3.61;77.95;101230.28;4173080;28;20037;-60
2022/12/28 05:03:20;;;;;;;;;;;;;;;3.61;77.82;101232.97;4173860;28;20012;-59
2022/12/28 05:05:22;;;;;;;;;;;;;;;3.61;77.86;101240.97;4172868;28;20318;-58
2022/12/28 05:07:24;;;;;;;;;;;;;;;3.60;77.88;101234.78;4173284;28;20011;-58
2022/12/28 05:09:26;;;;;;;;;;;;;;;3.63;78.03;101232.84;4172261;28;19927;-58
2022/12/28 05:11:30;;;;;;;;;;;;;;;3.64;77.75;101227.38;4179759;28;20019;-58
2022/12/28 05:13:32;;;;;;;;;;;;;;;3.66;77.75;101224.59;4172653;28;20040;-56
2022/12/28 05:15:34;;;;;;;;;;;;;;;3.67;77.86;101231.59;4172375;28;20019;-59
2022/12/28 05:17:36;;;;;;;;;;;;;;;3.67;77.66;101215.56;4173294;28;20028;-58
2022/12/28 05:19:38;;;;;;;;;;;;;;;3.68;77.30;101209.28;4172627;28;20402;-60
2022/12/28 05:21:40;;;;;;;;;;;;;;;3.67;77.61;101213.78;4172959;28;20462;-60
2022/12/28 05:23:42;;;;;;;;;;;;;;;3.68;77.66;101220.81;4172890;28;20015;-59
2022/12/28 05:25:44;;;;;;;;;;;;;;;3.67;77.57;101221.78;4171564;28;20024;-59
2022/12/28 05:27:47;;;;;;;;;;;;;;;3.68;77.70;101228.81;4173831;28;20383;-60
2022/12/28 05:29:49;;;;;;;;;;;;;;;3.71;77.60;101222.41;4172480;28;19972;-58
2022/12/28 05:31:51;;;;;;;;;;;;;;;3.72;77.49;101211.59;4172416;28;20016;-59
2022/12/28 05:33:53;;;;;;;;;;;;;;;3.72;77.52;101210.75;4172976;28;20008;-58
2022/12/28 05:35:55;;;;;;;;;;;;;;;3.73;77.51;101205.28;4170953;28;20019;-59
2022/12/28 05:37:57;;;;;;;;;;;;;;;3.75;77.27;101205.16;4172227;28;20015;-59
2022/12/28 05:40:00;;;;;;;;;;;;;;;3.74;77.00;101193.59;4172041;28;20012;-58
2022/12/28 05:42:02;;;;;;;;;;;;;;;3.73;77.49;101205.28;4172359;28;20016;-59
2022/12/28 05:44:05;;;;;;;;;;;;;;;3.76;77.12;101198.81;4172779;28;20048;-57
2022/12/28 05:46:08;;;;;;;;;;;;;;;3.78;77.03;101196.91;4171657;28;20393;-57
2022/12/28 05:48:10;;;;;;;;;;;;;;;3.80;77.15;101200.31;4172329;28;20016;-58
2022/12/28 05:50:12;;;;;;;;;;;;;;;3.79;77.27;101190.56;4172312;28;19925;-58
2022/12/28 05:52:14;;;;;;;;;;;;;;;3.79;77.03;101196.78;4171709;28;20020;-58
2022/12/28 05:54:16;;;;;;;;;;;;;;;3.83;77.23;101197.38;4171511;28;20007;-58
2022/12/28 05:56:18;;;;;;;;;;;;;;;3.84;77.20;101175.03;4172024;28;20016;-58
2022/12/28 05:58:20;;;;;;;;;;;;;;;3.86;77.13;101177.59;4172810;28;20011;-60
2022/12/28 06:00:24;;;;;;;;;;;;;;;3.86;77.01;101177.59;4170507;28;20027;-60
2022/12/28 06:02:26;;;;;;;;;;;;;;;3.87;77.07;101169.47;4173024;28;20015;-61
2022/12/28 06:04:28;;;;;;;;;;;;;;;3.87;76.89;101172.13;4171745;28;20008;-59
2022/12/28 06:06:30;;;;;;;;;;;;;;;3.90;77.08;101171.00;4172319;28;20019;-61
2022/12/28 06:08:32;;;;;;;;;;;;;;;3.89;76.88;101164.84;4172417;28;20011;-59
2022/12/28 06:10:34;;;;;;;;;;;;;;;3.90;76.80;101171.88;4171469;28;19975;-58
2022/12/28 06:12:36;;;;;;;;;;;;;;;3.89;77.08;101148.78;4172245;28;20011;-60
2022/12/28 06:14:38;;;;;;;;;;;;;;;3.90;76.85;101157.66;4172023;28;20359;-60
2022/12/28 06:16:41;;;;;;;;;;;;;;;3.90;77.01;101161.19;4171722;28;20008;-60
2022/12/28 06:18:43;;;;;;;;;;;;;;;3.91;77.01;101151.34;4172038;28;20044;-56
2022/12/28 06:20:45;;;;;;;;;;;;;;;3.90;77.10;101142.50;4171338;28;20016;-57
2022/12/28 06:22:47;;;;;;;;;;;;;;;3.91;76.77;101141.50;4172277;28;20019;-55
2022/12/28 06:24:49;;;;;;;;;;;;;;;3.93;76.77;101144.91;4170796;28;20072;-56
2022/12/28 06:26:51;;;;;;;;;;;;;;;3.94;77.20;101140.41;4187366;28;20371;-59
2022/12/28 06:28:53;;;;;;;;;;;;;;;3.95;76.86;101144.78;4172654;28;20015;-58
2022/12/28 06:31:01;;;;;;;;;;;;;;;3.95;76.83;101142.13;4171138;28;19921;-56
2022/12/28 06:33:04;;;;;;;;;;;;;;;3.95;76.84;101142.97;4171986;28;20003;-59
2022/12/28 06:35:06;;;;;;;;;;;;;;;3.95;76.98;101124.25;4170788;28;20000;-61
2022/12/28 06:37:08;;;;;;;;;;;;;;;3.95;77.12;101121.56;4172486;28;20016;-57
2022/12/28 06:39:11;;;;;;;;;;;;;;;3.97;77.07;101127.63;4172229;28;20371;-57
2022/12/28 06:41:13;;;;;;;;;;;;;;;3.99;76.93;101124.00;4170804;28;21598;-59
2022/12/28 06:43:15;;;;;;;;;;;;;;;4.01;77.05;101119.38;4171926;28;20027;-59
2022/12/28 06:45:17;;;;;;;;;;;;;;;4.03;76.83;101117.41;4170588;28;20356;-58
2022/12/28 06:47:19;;;;;;;;;;;;;;;4.04;76.71;101148.53;4172135;28;20018;-59
2022/12/28 06:49:22;;;;;;;;;;;;;;;4.03;76.87;101123.63;4170155;28;20501;-59
2022/12/28 06:51:25;;;;;;;;;;;;;;;4.04;77.08;101119.97;4172153;28;19944;-59
2022/12/28 06:53:27;;;;;;;;;;;;;;;4.06;77.51;101125.19;4171731;28;20011;-60
2022/12/28 06:55:29;;;;;;;;;;;;;;;4.08;77.44;101137.47;4170499;28;20044;-59
2022/12/28 06:57:31;;;;;;;;;;;;;;;4.06;77.94;101115.34;4171337;28;20360;-60
2022/12/28 06:59:33;;;;;;;;;;;;;;;4.06;78.35;101102.00;4170747;28;20019;-60
2022/12/28 07:01:36;;;;;;;;;;;;;;;4.06;78.80;101099.31;4178143;28;20466;-61
2022/12/28 07:03:38;;;;;;;;;;;;;;;4.07;79.22;101102.84;4171998;28;20015;-59
2022/12/28 07:05:41;;;;;;;;;;;;;;;4.06;79.27;101096.66;4170566;28;20004;-59
2022/12/28 07:07:45;;;;;;;;;;;;;;;4.05;79.80;101096.78;4171718;28;20016;-59
2022/12/28 07:09:47;;;;;;;;;;;;;;;4.05;80.14;101083.41;4170974;28;20478;-59
2022/12/28 07:11:49;;;;;;;;;;;;;;;4.05;80.57;101083.41;4171064;28;19956;-59
2022/12/28 07:13:51;;;;;;;;;;;;;;;4.06;80.80;101093.09;4171151;28;20000;-59
2022/12/28 07:15:53;;;;;;;;;;;;;;;4.05;80.71;101083.41;4169409;28;20016;-60
2022/12/28 07:17:55;;;;;;;;;;;;;;;4.07;81.08;101076.94;4173103;28;20020;-58
2022/12/28 07:19:57;;;;;;;;;;;;;;;4.07;81.10;101068.09;4169549;28;20043;-58
2022/12/28 07:22:00;;;;;;;;;;;;;;;4.06;81.45;101064.56;4170447;28;20463;-68
2022/12/28 07:24:03;;;;;;;;;;;;;;;4.09;81.66;101069.66;4167255;28;20478;-60
2022/12/28 07:26:06;;;;;;;;;;;;;;;4.12;81.84;101071.22;4167557;28;20015;-62
2022/12/28 07:28:08;;;;;;;;;;;;;;;4.12;81.60;101072.09;4170888;28;20024;-61
2022/12/28 07:30:10;;;;;;;;;;;;;;;4.12;81.66;101068.53;4177137;28;19999;-59
2022/12/28 07:32:12;;;;;;;;;;;;;;;4.12;81.71;101069.41;4170188;28;19928;-56
2022/12/28 07:34:14;;;;;;;;;;;;;;;4.09;81.79;101063.44;4170273;28;20080;-61
2022/12/28 07:36:18;;;;;;;;;;;;;;;4.09;81.96;101061.66;4169800;28;20397;-58
2022/12/28 07:38:21;;;;;;;;;;;;;;;4.10;82.14;101052.63;4171695;28;20498;-58
2022/12/28 07:40:23;;;;;;;;;;;;;;;4.13;82.37;101064.91;4170861;28;20627;-57
2022/12/28 07:42:25;;;;;;;;;;;;;;;4.10;82.29;101036.59;4170562;28;20022;-58
2022/12/28 07:44:27;;;;;;;;;;;;;;;4.11;82.50;101030.28;4170165;28;20019;-57
2022/12/28 07:46:30;;;;;;;;;;;;;;;4.12;82.59;101045.34;4169611;28;20365;-58
2022/12/28 07:48:33;;;;;;;;;;;;;;;4.12;82.82;101023.97;4170743;28;20824;-59
2022/12/28 07:50:34;;;;;;;;;;;;;;;4.13;82.88;101014.94;4169688;28;20016;-60
2022/12/28 07:52:37;;;;;;;;;;;;;;;4.13;82.89;101022.97;4170477;28;20020;-60
2022/12/28 07:54:40;;;;;;;;;;;;;;;4.14;83.27;101013.16;4169017;28;20004;-63
2022/12/28 07:56:42;;;;;;;;;;;;;;;4.15;83.44;101017.50;4169118;28;20011;-58
2022/12/28 07:58:47;;;;;;;;;;;;;;;4.17;83.44;101017.38;4171401;28;20011;-59
2022/12/28 08:00:49;;;;;;;;;;;;;;;4.17;83.33;101015.56;4167931;28;20426;-60
2022/12/28 08:02:54;;;;;;;;;;;;;;;4.21;83.33;101019.66;4169115;28;20367;-59
2022/12/28 08:04:56;;;;;;;;;;;;;;;4.21;83.33;101008.97;4167982;28;20012;-58
2022/12/28 08:06:58;;;;;;;;;;;;;;;4.23;83.54;101024.88;4170196;28;20015;-58
2022/12/28 08:09:00;;;;;;;;;;;;;;;4.25;83.55;101017.59;4167927;28;20019;-57
2022/12/28 08:11:05;;;;;;;;;;;;;;;4.26;83.42;101020.16;4167768;28;20861;-59
2022/12/28 08:13:07;;;;;;;;;;;;;;;4.27;83.79;101020.97;4168861;28;19971;-54
2022/12/28 08:15:09;;;;;;;;;;;;;;;4.28;83.80;101020.84;4167719;28;19996;-58
2022/12/28 08:17:11;;;;;;;;;;;;;;;4.29;83.92;101003.81;4167832;28;20462;-57
2022/12/28 08:19:13;;;;;;;;;;;;;;;4.29;83.76;101022.53;4169493;28;20015;-59
2022/12/28 08:21:16;;;;;;;;;;;;;;;4.32;84.02;101019.59;4167719;28;20032;-56
2022/12/28 08:23:18;;;;;;;;;;;;;;;4.32;84.10;101013.41;4168976;28;20039;-61
2022/12/28 08:25:20;;;;;;;;;;;;;;;4.35;84.07;101006.97;4167707;28;20601;-59
2022/12/28 08:27:23;;;;;;;;;;;;;;;4.37;84.05;101008.50;4166898;28;20048;-58
2022/12/28 08:29:25;;;;;;;;;;;;;;;4.41;83.74;101009.97;4169290;28;20027;-60
2022/12/28 08:31:27;;;;;;;;;;;;;;;4.43;83.79;101004.47;4169941;28;20849;-60
2022/12/28 08:33:29;;;;;;;;;;;;;;;4.45;83.60;100994.50;4168337;28;19925;-59
2022/12/28 08:35:31;;;;;;;;;;;;;;;4.46;83.75;100983.66;4167887;28;20008;-58
2022/12/28 08:37:33;;;;;;;;;;;;;;;4.48;83.67;101011.16;4169960;28;20015;-56
2022/12/28 08:39:35;;;;;;;;;;;;;;;4.51;83.54;101008.22;4168700;28;19999;-58
2022/12/28 08:41:37;;;;;;;;;;;;;;;4.53;83.52;100991.16;4167473;28;20023;-59
2022/12/28 08:43:40;;;;;;;;;;;;;;;4.55;83.80;100989.22;4169010;28;20019;-59
2022/12/28 08:45:42;;;;;;;;;;;;;;;4.58;83.26;100964.88;4167781;28;20229;-57
2022/12/28 08:47:44;;;;;;;;;;;;;;;4.59;83.21;100972.78;4168599;28;20016;-60
2022/12/28 08:49:47;;;;;;;;;;;;;;;4.60;83.17;100968.25;4168179;28;20007;-60
2022/12/28 08:51:49;;;;;;;;;;;;;;;4.63;83.25;100965.31;4168370;28;20027;-59
2022/12/28 08:53:51;;;;;;;;;;;;;;;4.66;82.92;100973.94;4168205;28;20012;-60
2022/12/28 08:55:53;;;;;;;;;;;;;;;4.70;83.03;100958.44;4168448;28;20332;-55
2022/12/28 08:57:55;;;;;;;;;;;;;;;4.70;83.00;100969.16;4169788;28;20021;-59
2022/12/28 08:59:59;;;;;;;;;;;;;;;4.75;82.50;100966.06;4169641;28;20454;-55
2022/12/28 09:02:01;;;;;;;;;;;;;;;4.77;82.58;100990.88;4169645;28;20016;-54
2022/12/28 09:04:03;;;;;;;;;;;;;;;4.77;82.36;100975.66;4170645;28;20486;-54
2022/12/28 09:06:05;;;;;;;;;;;;;;;4.82;82.12;100961.88;4169397;28;20017;-59
2022/12/28 09:08:07;;;;;;;;;;;;;;;4.86;81.80;100974.03;4170456;28;20027;-56
2022/12/28 09:10:09;;;;;;;;;;;;;;;4.88;81.71;100956.00;4169618;28;20082;-54
2022/12/28 09:12:11;;;;;;;;;;;;;;;4.89;81.36;100955.03;4170579;28;20014;-57
2022/12/28 09:14:13;;;;;;;;;;;;;;;4.93;81.32;100956.44;4172344;28;19924;-55
2022/12/28 09:16:17;;;;;;;;;;;;;;;4.97;81.34;100963.22;4172972;28;20028;-59
2022/12/28 09:18:19;;;;;;;;;;;;;;;5.00;81.09;100968.31;4172918;28;20012;-56
2022/12/28 09:20:21;;;;;;;;;;;;;;;5.02;80.79;100960.97;4172427;28;20019;-55
2022/12/28 09:22:23;;;;;;;;;;;;;;;5.04;80.69;100971.56;4172795;28;20023;-55
2022/12/28 09:24:25;;;;;;;;;;;;;;;5.07;80.38;100952.53;4172372;28;20127;-59
2022/12/28 09:26:28;;;;;;;;;;;;;;;5.07;80.81;100943.69;4172380;28;20088;-56
2022/12/28 09:28:30;;;;;;;;;;;;;;;5.09;80.92;100955.94;4172902;28;20356;-58
2022/12/28 09:30:32;;;;;;;;;;;;;;;5.11;80.60;100961.16;4171952;28;20011;-60
2022/12/28 09:32:35;;;;;;;;;;;;;;;5.09;80.87;100939.88;4172780;28;20027;-58
2022/12/28 09:34:37;;;;;;;;;;;;;;;5.10;80.85;100930.84;4171208;28;19924;-57
2022/12/28 09:36:40;;;;;;;;;;;;;;;5.12;81.08;100946.78;4172720;28;20015;-56
2022/12/28 09:38:42;;;;;;;;;;;;;;;5.14;81.04;100944.81;4172868;28;20020;-58
2022/12/28 09:40:44;;;;;;;;;;;;;;;5.14;80.96;100928.75;4172524;28;19992;-58
2022/12/28 09:42:46;;;;;;;;;;;;;;;5.14;80.87;100918.91;4171192;28;20032;-59
2022/12/28 09:44:49;;;;;;;;;;;;;;;5.14;81.59;100918.03;4171592;28;20036;-61
2022/12/28 09:46:51;;;;;;;;;;;;;;;5.14;81.30;100910.00;4171618;28;20020;-57
2022/12/28 09:48:55;;;;;;;;;;;;;;;5.15;81.40;100909.88;4172554;28;20365;-60
2022/12/28 09:50:57;;;;;;;;;;;;;;;5.15;81.41;100917.06;4171807;28;20015;-56
2022/12/28 09:53:11;;;;;;;;;;;;;;;5.15;81.57;100923.25;4172274;28;20450;-60
2022/12/28 09:55:14;;;;;;;;;;;;;;;5.16;82.05;100910.72;4171585;28;19924;-57
2022/12/28 09:57:16;;;;;;;;;;;;;;;5.17;81.62;100915.09;4172056;28;20451;-58
2022/12/28 09:59:19;;;;;;;;;;;;;;;5.17;81.90;100912.41;4170842;28;20019;-56
2022/12/28 10:01:21;;;;;;;;;;;;;;;5.19;81.97;100913.13;4172653;28;20027;-60
2022/12/28 10:03:24;;;;;;;;;;;;;;;5.19;82.17;100908.63;4172860;28;20599;-59
2022/12/28 10:05:28;;;;;;;;;;;;;;;5.21;81.73;100908.47;4171690;28;20015;-60
2022/12/28 10:07:30;;;;;;;;;;;;;;;5.23;81.82;100901.16;4172170;28;20348;-59
2022/12/28 10:09:32;;;;;;;;;;;;;;;5.24;81.76;100889.47;4170890;28;20046;-57
2022/12/28 10:11:34;;;;;;;;;;;;;;;5.26;81.50;100895.50;4173072;28;20015;-58
2022/12/28 10:13:37;;;;;;;;;;;;;;;5.26;81.58;100890.16;4172445;28;20007;-58
2022/12/28 10:15:39;;;;;;;;;;;;;;;5.28;81.45;100904.25;4170654;28;20012;-59
2022/12/28 10:17:41;;;;;;;;;;;;;;;5.30;81.17;100902.28;4172089;28;20020;-60
2022/12/28 10:19:44;;;;;;;;;;;;;;;5.32;81.29;100876.22;4171347;28;20023;-59
2022/12/28 10:21:47;;;;;;;;;;;;;;;5.33;81.55;100901.16;4169948;28;20359;-60
2022/12/28 10:23:50;;;;;;;;;;;;;;;5.36;81.22;100884.81;4171212;28;20035;-60
2022/12/28 10:25:53;;;;;;;;;;;;;;;5.37;81.40;100873.13;4170739;28;20030;-59
2022/12/28 10:27:55;;;;;;;;;;;;;;;5.37;81.63;100865.91;4171785;28;20047;-60
2022/12/28 10:29:59;;;;;;;;;;;;;;;5.39;81.46;100869.31;4170976;28;20371;-57
2022/12/28 10:32:01;;;;;;;;;;;;;;;5.40;81.09;100865.63;4171423;28;20031;-60
2022/12/28 10:34:11;;;;;;;;;;;;;;;5.42;81.28;100860.13;4171613;28;20023;-58
2022/12/28 10:36:13;;;;;;;;;;;;;;;5.46;81.65;100850.00;4169914;28;20478;-60
2022/12/28 10:38:20;;;;;;;;;;;;;;;5.48;81.74;100885.53;4172703;28;20015;-59
2022/12/28 10:40:24;;;;;;;;;;;;;;;5.50;82.02;100871.03;4171064;28;20008;-60
2022/12/28 10:42:26;;;;;;;;;;;;;;;5.52;81.87;100854.81;4171497;28;20053;-58
2022/12/28 10:44:29;;;;;;;;;;;;;;;5.55;82.39;100857.22;4168989;28;20095;-56
2022/12/28 10:46:31;;;;;;;;;;;;;;;5.55;82.57;100847.31;4171252;28;20011;-58
2022/12/28 10:48:33;;;;;;;;;;;;;;;5.56;82.79;100843.66;4171614;28;20035;-59
2022/12/28 10:50:46;;;;;;;;;;;;;;;5.57;82.89;100856.06;4170558;28;19963;-59
2022/12/28 10:52:55;;;;;;;;;;;;;;;5.58;82.93;100855.09;4171775;28;20057;-58
2022/12/28 10:54:58;;;;;;;;;;;;;;;5.58;83.02;100843.53;4169982;28;20010;-61
2022/12/28 10:57:00;;;;;;;;;;;;;;;5.55;82.67;100835.78;4170637;28;19929;-58
2022/12/28 10:59:18;;;;;;;;;;;;;;;5.56;82.42;100824.03;4171513;28;20426;-58
2022/12/28 11:01:24;;;;;;;;;;;;;;;5.58;82.18;100840.84;4169636;28;20395;-58
2022/12/28 11:03:26;;;;;;;;;;;;;;;5.59;82.11;100821.09;4171395;28;20031;-58
2022/12/28 11:05:29;;;;;;;;;;;;;;;5.60;82.68;100830.81;4170343;28;20419;-59
2022/12/28 11:07:32;;;;;;;;;;;;;;;5.62;82.79;100822.66;4171573;28;20016;-58
2022/12/28 11:09:34;;;;;;;;;;;;;;;5.60;83.33;100812.91;4170306;28;20423;-58